createdAt,value
2022-09-15T00:00:31.531Z,989.5337491480001
2022-09-15T00:01:31.751Z,989.432157784
2022-09-15T00:02:31.878Z,989.5337491480001
2022-09-15T00:03:31.685Z,989.33056642
2022-09-15T00:04:31.475Z,989.5337491480001
2022-09-15T00:05:31.637Z,989.432157784
2022-09-15T00:06:31.651Z,989.432157784
2022-09-15T00:07:31.696Z,989.5337491480001
2022-09-15T00:08:31.461Z,989.5337491480001
2022-09-15T00:09:31.674Z,989.33056642
2022-09-15T00:10:31.650Z,989.33056642
2022-09-15T00:11:31.672Z,989.432157784
2022-09-15T00:12:31.488Z,989.432157784
2022-09-15T00:13:31.649Z,989.5337491480001
2022-09-15T00:14:31.665Z,989.432157784
2022-09-15T00:15:31.968Z,989.33056642
2022-09-15T00:16:31.511Z,989.432157784
2022-09-15T00:17:31.673Z,989.5337491480001
2022-09-15T00:18:31.669Z,989.432157784
2022-09-15T00:19:31.651Z,989.2289750559999
2022-09-15T00:20:31.416Z,989.33056642
2022-09-15T00:21:31.709Z,989.33056642
2022-09-15T00:22:31.659Z,989.33056642
2022-09-15T00:23:31.664Z,989.2289750559999
2022-09-15T00:24:31.442Z,989.432157784
2022-09-15T00:25:31.628Z,989.2289750559999
2022-09-15T00:26:31.750Z,989.33056642
2022-09-15T00:27:31.666Z,989.2289750559999
2022-09-15T00:28:31.446Z,989.5337491480001
2022-09-15T00:29:31.649Z,989.33056642
2022-09-15T00:30:32.092Z,989.5337491480001
2022-09-15T00:31:31.671Z,989.127383692
2022-09-15T00:32:31.456Z,989.2289750559999
2022-09-15T00:33:31.745Z,989.2289750559999
2022-09-15T00:34:31.644Z,989.33056642
2022-09-15T00:35:31.621Z,989.2289750559999
2022-09-15T00:36:31.436Z,989.33056642
2022-09-15T00:37:31.673Z,989.432157784
2022-09-15T00:38:31.710Z,989.2289750559999
2022-09-15T00:39:31.653Z,989.2289750559999
2022-09-15T00:40:31.519Z,989.127383692
2022-09-15T00:41:31.644Z,989.2289750559999
2022-09-15T00:42:31.669Z,989.33056642
2022-09-15T00:43:31.619Z,989.2289750559999
2022-09-15T00:44:31.430Z,989.127383692
2022-09-15T00:45:31.740Z,989.2289750559999
2022-09-15T00:46:31.655Z,988.9242009639999
2022-09-15T00:47:31.643Z,988.9242009639999
2022-09-15T00:48:31.562Z,988.9242009639999
2022-09-15T00:49:31.660Z,989.127383692
2022-09-15T00:50:31.665Z,989.2289750559999
2022-09-15T00:51:31.630Z,989.127383692
2022-09-15T00:52:31.405Z,989.127383692
2022-09-15T00:53:31.661Z,989.127383692
2022-09-15T00:54:31.660Z,989.127383692
2022-09-15T00:55:31.633Z,988.9242009639999
2022-09-15T00:56:31.426Z,989.025792328
2022-09-15T00:57:31.652Z,989.025792328
2022-09-15T00:58:31.629Z,989.025792328
2022-09-15T00:59:31.638Z,989.025792328
2022-09-15T01:00:31.421Z,989.127383692
2022-09-15T01:01:31.738Z,988.9242009639999
2022-09-15T01:02:31.736Z,989.025792328
2022-09-15T01:03:31.632Z,988.9242009639999
2022-09-15T01:04:31.430Z,988.9242009639999
2022-09-15T01:05:31.655Z,988.9242009639999
2022-09-15T01:06:31.648Z,988.9242009639999
2022-09-15T01:07:31.625Z,989.025792328
2022-09-15T01:08:31.411Z,988.9242009639999
2022-09-15T01:09:31.641Z,989.025792328
2022-09-15T01:10:31.647Z,988.9242009639999
2022-09-15T01:11:31.644Z,988.8226096
2022-09-15T01:12:31.442Z,989.025792328
2022-09-15T01:13:31.727Z,989.025792328
2022-09-15T01:14:31.663Z,988.8226096
2022-09-15T01:15:31.630Z,988.8226096
2022-09-15T01:16:31.502Z,988.9242009639999
2022-09-15T01:17:31.652Z,989.127383692
2022-09-15T01:18:31.655Z,989.025792328
2022-09-15T01:19:31.635Z,988.8226096
2022-09-15T01:20:31.370Z,988.8226096
2022-09-15T01:21:31.654Z,988.9242009639999
2022-09-15T01:22:31.619Z,988.721018236
2022-09-15T01:23:31.663Z,988.8226096
2022-09-15T01:24:31.361Z,988.9242009639999
2022-09-15T01:25:31.678Z,988.9242009639999
2022-09-15T01:26:31.641Z,989.025792328
2022-09-15T01:27:41.961Z,988.721018236
2022-09-15T01:28:31.384Z,988.8226096
2022-09-15T01:29:31.633Z,988.8226096
2022-09-15T01:30:31.628Z,988.8226096
2022-09-15T01:31:31.690Z,989.025792328
2022-09-15T01:32:31.399Z,988.213061416
2022-09-15T01:33:31.669Z,988.3146527799998
2022-09-15T01:34:31.646Z,988.213061416
2022-09-15T01:35:31.645Z,988.3146527799998
2022-09-15T01:36:31.361Z,988.416244144
2022-09-15T01:37:31.647Z,988.111470052
2022-09-15T01:38:31.681Z,988.416244144
2022-09-15T01:39:31.632Z,988.416244144
2022-09-15T01:40:31.549Z,988.517835508
2022-09-15T01:41:31.778Z,988.213061416
2022-09-15T01:42:31.793Z,988.416244144
2022-09-15T01:43:31.762Z,988.416244144
2022-09-15T01:44:31.478Z,988.3146527799998
2022-09-15T01:45:31.825Z,988.8226096
2022-09-15T01:46:31.733Z,988.9242009639999
2022-09-15T01:47:32.231Z,989.2289750559999
2022-09-15T01:48:31.374Z,988.8226096
2022-09-15T01:49:31.640Z,988.517835508
2022-09-15T01:50:31.622Z,988.9242009639999
2022-09-15T01:51:31.635Z,988.9242009639999
2022-09-15T01:52:31.325Z,988.8226096
2022-09-15T01:53:31.647Z,988.721018236
2022-09-15T01:54:31.642Z,988.721018236
2022-09-15T01:55:31.647Z,989.025792328
2022-09-15T01:56:31.323Z,988.8226096
2022-09-15T01:57:31.651Z,988.721018236
2022-09-15T01:58:31.640Z,988.8226096
2022-09-15T01:59:31.631Z,988.8226096
2022-09-15T02:00:31.366Z,988.9242009639999
2022-09-15T02:01:31.808Z,988.9242009639999
2022-09-15T02:02:31.726Z,988.8226096
2022-09-15T02:03:31.710Z,988.9242009639999
2022-09-15T02:04:31.332Z,988.721018236
2022-09-15T02:05:31.656Z,988.8226096
2022-09-15T02:06:31.654Z,988.8226096
2022-09-15T02:07:31.686Z,988.9242009639999
2022-09-15T02:08:31.370Z,988.721018236
2022-09-15T02:09:31.649Z,988.8226096
2022-09-15T02:10:31.657Z,988.8226096
2022-09-15T02:11:31.634Z,988.721018236
2022-09-15T02:12:31.299Z,988.721018236
2022-09-15T02:13:31.664Z,988.721018236
2022-09-15T02:14:31.636Z,988.9242009639999
2022-09-15T02:15:31.764Z,988.6194268719998
2022-09-15T02:16:31.414Z,988.721018236
2022-09-15T02:17:31.643Z,988.8226096
2022-09-15T02:18:31.637Z,988.8226096
2022-09-15T02:19:31.663Z,988.9242009639999
2022-09-15T02:20:31.369Z,988.721018236
2022-09-15T02:21:31.650Z,988.721018236
2022-09-15T02:22:31.645Z,988.6194268719998
2022-09-15T02:23:31.685Z,988.6194268719998
2022-09-15T02:24:31.278Z,988.416244144
2022-09-15T02:25:31.607Z,988.721018236
2022-09-15T02:26:31.627Z,988.721018236
2022-09-15T02:27:31.664Z,988.6194268719998
2022-09-15T02:28:31.281Z,988.6194268719998
2022-09-15T02:29:31.689Z,988.6194268719998
2022-09-15T02:30:31.650Z,988.517835508
2022-09-15T02:31:31.752Z,988.517835508
2022-09-15T02:32:31.298Z,988.416244144
2022-09-15T02:33:31.665Z,988.721018236
2022-09-15T02:34:31.636Z,988.6194268719998
2022-09-15T02:35:31.647Z,988.9242009639999
2022-09-15T02:36:31.287Z,988.6194268719998
2022-09-15T02:37:31.688Z,988.6194268719998
2022-09-15T02:38:31.606Z,988.6194268719998
2022-09-15T02:39:31.669Z,988.6194268719998
2022-09-15T02:40:31.455Z,988.517835508
2022-09-15T02:41:31.626Z,988.6194268719998
2022-09-15T02:42:31.639Z,988.517835508
2022-09-15T02:43:31.693Z,988.517835508
2022-09-15T02:44:31.281Z,988.6194268719998
2022-09-15T02:45:31.823Z,988.6194268719998
2022-09-15T02:46:31.634Z,988.416244144
2022-09-15T02:47:31.627Z,988.6194268719998
2022-09-15T02:48:31.272Z,988.6194268719998
2022-09-15T02:49:31.629Z,988.517835508
2022-09-15T02:50:31.625Z,988.517835508
2022-09-15T02:51:31.618Z,988.517835508
2022-09-15T02:52:31.413Z,988.6194268719998
2022-09-15T02:53:31.640Z,988.6194268719998
2022-09-15T02:54:31.609Z,988.517835508
2022-09-15T02:55:31.628Z,988.6194268719998
2022-09-15T02:56:31.257Z,988.416244144
2022-09-15T02:57:31.642Z,988.3146527799998
2022-09-15T02:58:31.617Z,988.517835508
2022-09-15T02:59:31.662Z,988.416244144
2022-09-15T03:00:31.485Z,988.416244144
2022-09-15T03:01:31.623Z,988.3146527799998
2022-09-15T03:02:31.717Z,988.3146527799998
2022-09-15T03:03:31.617Z,988.416244144
2022-09-15T03:04:31.265Z,988.416244144
2022-09-15T03:05:31.655Z,988.3146527799998
2022-09-15T03:06:31.596Z,988.6194268719998
2022-09-15T03:07:31.659Z,988.416244144
2022-09-15T03:08:31.283Z,988.213061416
2022-09-15T03:09:31.761Z,988.3146527799998
2022-09-15T03:10:31.643Z,988.3146527799998
2022-09-15T03:11:31.768Z,988.213061416
2022-09-15T03:12:31.543Z,988.416244144
2022-09-15T03:13:31.751Z,988.416244144
2022-09-15T03:14:31.772Z,988.517835508
2022-09-15T03:15:31.623Z,988.517835508
2022-09-15T03:16:31.423Z,988.3146527799998
2022-09-15T03:17:31.761Z,988.3146527799998
2022-09-15T03:18:31.774Z,988.6194268719998
2022-09-15T03:19:31.696Z,988.3146527799998
2022-09-15T03:20:31.376Z,988.517835508
2022-09-15T03:21:31.774Z,988.3146527799998
2022-09-15T03:22:31.699Z,988.3146527799998
2022-09-15T03:23:31.626Z,988.213061416
2022-09-15T03:24:31.445Z,988.111470052
2022-09-15T03:25:31.738Z,988.213061416
2022-09-15T03:26:31.684Z,988.3146527799998
2022-09-15T03:27:31.792Z,988.213061416
2022-09-15T03:28:31.354Z,988.416244144
2022-09-15T03:29:31.795Z,988.111470052
2022-09-15T03:30:31.702Z,988.111470052
2022-09-15T03:31:31.695Z,988.416244144
2022-09-15T03:32:31.198Z,988.111470052
2022-09-15T03:33:31.651Z,988.111470052
2022-09-15T03:34:31.624Z,988.213061416
2022-09-15T03:35:31.613Z,987.908287324
2022-09-15T03:36:31.299Z,988.213061416
2022-09-15T03:37:31.634Z,988.3146527799998
2022-09-15T03:38:31.588Z,988.213061416
2022-09-15T03:39:31.607Z,988.213061416
2022-09-15T03:40:31.330Z,988.111470052
2022-09-15T03:41:31.623Z,987.908287324
2022-09-15T03:42:31.716Z,988.111470052
2022-09-15T03:43:31.657Z,988.213061416
2022-09-15T03:44:31.238Z,988.213061416
2022-09-15T03:45:31.708Z,988.111470052
2022-09-15T03:46:31.609Z,988.0098786879998
2022-09-15T03:47:31.671Z,988.111470052
2022-09-15T03:48:31.202Z,988.0098786879998
2022-09-15T03:49:31.654Z,988.213061416
2022-09-15T03:50:31.643Z,988.0098786879998
2022-09-15T03:51:31.622Z,988.213061416
2022-09-15T03:52:31.218Z,988.0098786879998
2022-09-15T03:53:31.645Z,988.0098786879998
2022-09-15T03:54:31.615Z,988.0098786879998
2022-09-15T03:55:31.640Z,987.908287324
2022-09-15T03:56:31.189Z,987.908287324
2022-09-15T03:57:31.640Z,988.111470052
2022-09-15T03:58:31.612Z,988.213061416
2022-09-15T03:59:31.683Z,988.111470052
2022-09-15T04:00:32.865Z,988.111470052
2022-09-15T04:01:31.889Z,987.908287324
2022-09-15T04:02:31.629Z,987.908287324
2022-09-15T04:03:31.640Z,988.111470052
2022-09-15T04:04:31.233Z,988.111470052
2022-09-15T04:05:31.621Z,988.0098786879998
2022-09-15T04:06:31.616Z,988.0098786879998
2022-09-15T04:07:31.618Z,988.0098786879998
2022-09-15T04:08:31.195Z,988.0098786879998
2022-09-15T04:09:31.645Z,987.8066959600001
2022-09-15T04:10:31.621Z,987.8066959600001
2022-09-15T04:11:31.643Z,988.213061416
2022-09-15T04:12:31.225Z,988.0098786879998
2022-09-15T04:13:31.644Z,987.908287324
2022-09-15T04:14:31.608Z,988.0098786879998
2022-09-15T04:15:31.617Z,987.908287324
2022-09-15T04:16:31.291Z,988.0098786879998
2022-09-15T04:17:31.643Z,987.8066959600001
2022-09-15T04:18:31.691Z,987.908287324
2022-09-15T04:19:31.676Z,987.908287324
2022-09-15T04:20:31.176Z,987.908287324
2022-09-15T04:21:31.698Z,987.908287324
2022-09-15T04:22:31.616Z,987.908287324
2022-09-15T04:23:31.652Z,988.0098786879998
2022-09-15T04:24:31.311Z,988.0098786879998
2022-09-15T04:25:31.645Z,988.111470052
2022-09-15T04:26:31.629Z,988.0098786879998
2022-09-15T04:27:31.628Z,987.908287324
2022-09-15T04:28:31.214Z,987.908287324
2022-09-15T04:29:31.649Z,988.0098786879998
2022-09-15T04:30:31.618Z,987.8066959600001
2022-09-15T04:31:31.767Z,987.8066959600001
2022-09-15T04:32:31.164Z,988.111470052
2022-09-15T04:33:31.609Z,988.0098786879998
2022-09-15T04:34:31.649Z,987.8066959600001
2022-09-15T04:35:31.632Z,987.63737702
2022-09-15T04:36:31.295Z,987.8066959600001
2022-09-15T04:37:31.628Z,988.111470052
2022-09-15T04:38:31.613Z,987.908287324
2022-09-15T04:39:31.668Z,987.908287324
2022-09-15T04:40:31.195Z,988.0098786879998
2022-09-15T04:41:31.626Z,987.908287324
2022-09-15T04:42:31.640Z,988.111470052
2022-09-15T04:43:31.610Z,988.111470052
2022-09-15T04:44:31.168Z,987.8066959600001
2022-09-15T04:45:31.642Z,987.8066959600001
2022-09-15T04:46:31.648Z,987.7389683839999
2022-09-15T04:47:31.625Z,987.908287324
2022-09-15T04:48:31.197Z,987.8066959600001
2022-09-15T04:49:31.637Z,988.0098786879998
2022-09-15T04:50:31.603Z,987.8066959600001
2022-09-15T04:51:31.597Z,987.8066959600001
2022-09-15T04:52:31.136Z,987.908287324
2022-09-15T04:53:31.632Z,987.8066959600001
2022-09-15T04:54:31.626Z,987.7389683839999
2022-09-15T04:55:31.626Z,988.0098786879998
2022-09-15T04:56:31.139Z,987.7389683839999
2022-09-15T04:57:31.605Z,988.0098786879998
2022-09-15T04:58:31.595Z,987.908287324
2022-09-15T04:59:31.655Z,987.7389683839999
2022-09-15T05:00:32.993Z,987.908287324
2022-09-15T05:01:31.661Z,987.63737702
2022-09-15T05:02:31.621Z,987.63737702
2022-09-15T05:03:31.633Z,988.0098786879998
2022-09-15T05:04:31.086Z,987.7389683839999
2022-09-15T05:05:31.617Z,987.7389683839999
2022-09-15T05:06:31.610Z,987.63737702
2022-09-15T05:07:31.630Z,987.908287324
2022-09-15T05:08:31.132Z,988.0098786879998
2022-09-15T05:09:31.629Z,987.908287324
2022-09-15T05:10:31.619Z,987.8066959600001
2022-09-15T05:11:31.706Z,988.0098786879998
2022-09-15T05:12:31.114Z,987.908287324
2022-09-15T05:13:31.609Z,987.7389683839999
2022-09-15T05:14:31.598Z,987.908287324
2022-09-15T05:15:31.632Z,987.8066959600001
2022-09-15T05:16:31.242Z,987.908287324
2022-09-15T05:17:31.646Z,987.908287324
2022-09-15T05:18:31.607Z,987.7389683839999
2022-09-15T05:19:31.681Z,987.908287324
2022-09-15T05:20:32.119Z,987.908287324
2022-09-15T05:21:31.647Z,987.8066959600001
2022-09-15T05:22:31.571Z,988.0098786879998
2022-09-15T05:23:31.614Z,987.8066959600001
2022-09-15T05:24:31.096Z,987.8066959600001
2022-09-15T05:25:31.632Z,987.7389683839999
2022-09-15T05:26:31.599Z,987.5357856559999
2022-09-15T05:27:31.652Z,987.8066959600001
2022-09-15T05:28:31.117Z,987.7389683839999
2022-09-15T05:29:31.643Z,987.8066959600001
2022-09-15T05:30:38.565Z,987.63737702
2022-09-15T05:31:31.823Z,987.7389683839999
2022-09-15T05:32:31.135Z,987.7389683839999
2022-09-15T05:33:31.686Z,987.63737702
2022-09-15T05:34:31.655Z,987.63737702
2022-09-15T05:35:31.643Z,987.7389683839999
2022-09-15T05:36:31.089Z,987.7389683839999
2022-09-15T05:37:31.572Z,987.63737702
2022-09-15T05:38:31.604Z,987.63737702
2022-09-15T05:39:31.631Z,987.5357856559999
2022-09-15T05:40:31.085Z,987.5357856559999
2022-09-15T05:41:31.581Z,987.63737702
2022-09-15T05:42:31.623Z,987.7389683839999
2022-09-15T05:43:31.622Z,987.7389683839999
2022-09-15T05:44:31.084Z,987.7389683839999
2022-09-15T05:45:31.599Z,987.7389683839999
2022-09-15T05:46:31.682Z,987.63737702
2022-09-15T05:47:31.735Z,987.63737702
2022-09-15T05:48:31.054Z,987.63737702
2022-09-15T05:49:32.044Z,987.7389683839999
2022-09-15T05:50:31.626Z,987.63737702
2022-09-15T05:51:31.635Z,987.63737702
2022-09-15T05:52:31.087Z,987.63737702
2022-09-15T05:53:31.607Z,987.63737702
2022-09-15T05:54:31.641Z,987.63737702
2022-09-15T05:55:31.643Z,987.63737702
2022-09-15T05:56:31.047Z,987.63737702
2022-09-15T05:57:31.614Z,987.4341942919999
2022-09-15T05:58:31.616Z,987.63737702
2022-09-15T05:59:31.695Z,987.5357856559999
2022-09-15T06:00:31.068Z,987.5357856559999
2022-09-15T06:01:31.685Z,987.5357856559999
2022-09-15T06:02:31.865Z,987.5357856559999
2022-09-15T06:03:31.696Z,987.4341942919999
2022-09-15T06:04:31.082Z,987.4341942919999
2022-09-15T06:05:31.596Z,987.5357856559999
2022-09-15T06:06:31.597Z,987.4341942919999
2022-09-15T06:07:31.800Z,987.63737702
2022-09-15T06:08:31.054Z,987.63737702
2022-09-15T06:09:31.621Z,987.4341942919999
2022-09-15T06:10:31.627Z,987.63737702
2022-09-15T06:11:31.624Z,987.5357856559999
2022-09-15T06:12:31.158Z,987.5357856559999
2022-09-15T06:13:31.655Z,987.4341942919999
2022-09-15T06:14:31.590Z,987.5357856559999
2022-09-15T06:15:31.627Z,987.332602928
2022-09-15T06:16:31.198Z,987.332602928
2022-09-15T06:17:31.593Z,987.2310115639999
2022-09-15T06:18:31.595Z,987.5357856559999
2022-09-15T06:19:31.696Z,987.332602928
2022-09-15T06:20:31.110Z,987.332602928
2022-09-15T06:21:31.712Z,987.4341942919999
2022-09-15T06:22:31.728Z,987.4341942919999
2022-09-15T06:23:31.630Z,987.332602928
2022-09-15T06:24:31.055Z,987.332602928
2022-09-15T06:25:31.594Z,987.4341942919999
2022-09-15T06:26:31.592Z,987.332602928
2022-09-15T06:27:31.635Z,987.4341942919999
2022-09-15T06:28:30.981Z,987.4341942919999
2022-09-15T06:29:31.595Z,987.4341942919999
2022-09-15T06:30:31.603Z,987.63737702
2022-09-15T06:31:31.764Z,987.5357856559999
2022-09-15T06:32:31.107Z,987.5357856559999
2022-09-15T06:33:31.617Z,987.7389683839999
2022-09-15T06:34:31.609Z,987.63737702
2022-09-15T06:35:31.595Z,987.7389683839999
2022-09-15T06:36:30.968Z,987.7389683839999
2022-09-15T06:37:31.580Z,987.5357856559999
2022-09-15T06:38:31.610Z,987.332602928
2022-09-15T06:39:31.631Z,987.63737702
2022-09-15T06:40:31.114Z,987.63737702
2022-09-15T06:41:52.433Z,987.5357856559999
2022-09-15T06:42:31.657Z,987.4341942919999
2022-09-15T06:43:31.632Z,987.7389683839999
2022-09-15T06:44:30.968Z,987.7389683839999
2022-09-15T06:45:31.584Z,987.4341942919999
2022-09-15T06:46:31.842Z,987.4341942919999
2022-09-15T06:47:31.668Z,987.4341942919999
2022-09-15T06:48:31.059Z,987.4341942919999
2022-09-15T06:49:31.623Z,987.5357856559999
2022-09-15T06:50:31.626Z,987.63737702
2022-09-15T06:51:31.608Z,987.4341942919999
2022-09-15T06:52:30.970Z,987.4341942919999
2022-09-15T06:53:31.618Z,987.63737702
2022-09-15T06:54:31.722Z,987.5357856559999
2022-09-15T06:55:31.661Z,987.5357856559999
2022-09-15T06:56:34.477Z,987.5357856559999
2022-09-15T06:57:31.605Z,987.4341942919999
2022-09-15T06:58:31.632Z,987.5357856559999
2022-09-15T06:59:31.630Z,987.5357856559999
2022-09-15T07:00:30.952Z,987.5357856559999
2022-09-15T07:01:31.602Z,987.5357856559999
2022-09-15T07:02:31.860Z,987.5357856559999
2022-09-15T07:03:31.668Z,987.63737702
2022-09-15T07:04:31.003Z,987.63737702
2022-09-15T07:05:31.609Z,987.63737702
2022-09-15T07:06:31.636Z,987.4341942919999
2022-09-15T07:07:31.611Z,987.7389683839999
2022-09-15T07:08:31.164Z,987.7389683839999
2022-09-15T07:09:31.610Z,987.4341942919999
2022-09-15T07:10:31.677Z,987.4341942919999
2022-09-15T07:11:31.648Z,987.5357856559999
2022-09-15T07:12:30.940Z,987.5357856559999
2022-09-15T07:13:31.642Z,987.5357856559999
2022-09-15T07:14:31.605Z,987.4341942919999
2022-09-15T07:15:31.617Z,987.5357856559999
2022-09-15T07:16:31.120Z,987.5357856559999
2022-09-15T07:17:31.627Z,987.5357856559999
2022-09-15T07:18:31.609Z,987.4341942919999
2022-09-15T07:19:31.671Z,987.63737702
2022-09-15T07:20:31.070Z,987.63737702
2022-09-15T07:21:31.600Z,987.332602928
2022-09-15T07:22:31.600Z,987.332602928
2022-09-15T07:23:31.639Z,987.332602928
2022-09-15T07:24:30.982Z,987.332602928
2022-09-15T07:25:31.619Z,987.1294201999999
2022-09-15T07:26:31.580Z,987.1294201999999
2022-09-15T07:27:31.600Z,987.1294201999999
2022-09-15T07:28:30.956Z,987.1294201999999
2022-09-15T07:29:35.868Z,987.1294201999999
2022-09-15T07:30:31.595Z,987.4341942919999
2022-09-15T07:31:31.718Z,987.2310115639999
2022-09-15T07:32:31.047Z,987.2310115639999
2022-09-15T07:33:31.640Z,986.9262374719999
2022-09-15T07:34:31.600Z,987.1294201999999
2022-09-15T07:35:31.651Z,987.2310115639999
2022-09-15T07:36:30.985Z,987.2310115639999
2022-09-15T07:37:31.596Z,987.332602928
2022-09-15T07:38:31.617Z,987.027828836
2022-09-15T07:39:31.600Z,987.1294201999999
2022-09-15T07:40:31.059Z,987.1294201999999
2022-09-15T07:41:31.654Z,987.332602928
2022-09-15T07:42:35.282Z,987.2310115639999
2022-09-15T07:43:31.597Z,987.027828836
2022-09-15T07:44:31.739Z,987.4341942919999
2022-09-15T07:45:31.660Z,987.027828836
2022-09-15T07:46:31.705Z,987.2310115639999
2022-09-15T07:47:31.647Z,987.1294201999999
2022-09-15T07:48:31.605Z,987.1294201999999
2022-09-15T07:49:31.647Z,987.027828836
2022-09-15T07:50:31.693Z,987.1294201999999
2022-09-15T07:51:31.659Z,987.027828836
2022-09-15T07:52:30.889Z,987.027828836
2022-09-15T07:53:31.610Z,987.027828836
2022-09-15T07:54:31.668Z,987.1294201999999
2022-09-15T07:55:31.654Z,987.027828836
2022-09-15T07:56:30.916Z,987.027828836
2022-09-15T07:57:31.601Z,987.2310115639999
2022-09-15T07:58:31.611Z,987.027828836
2022-09-15T07:59:31.599Z,987.027828836
2022-09-15T08:00:31.667Z,986.9262374719999
2022-09-15T08:01:31.680Z,987.1294201999999
2022-09-15T08:02:31.667Z,987.027828836
2022-09-15T08:03:31.637Z,987.027828836
2022-09-15T08:04:31.646Z,987.1294201999999
2022-09-15T08:05:33.760Z,986.9262374719999
2022-09-15T08:06:31.627Z,987.027828836
2022-09-15T08:07:31.618Z,987.1294201999999
2022-09-15T08:08:31.633Z,987.1294201999999
2022-09-15T08:09:31.620Z,987.1294201999999
2022-09-15T08:10:31.614Z,987.027828836
2022-09-15T08:11:31.654Z,987.2310115639999
2022-09-15T08:12:31.613Z,987.2310115639999
2022-09-15T08:13:31.584Z,987.027828836
2022-09-15T08:14:31.664Z,987.027828836
2022-09-15T08:15:31.607Z,987.1294201999999
2022-09-15T08:16:31.702Z,986.9262374719999
2022-09-15T08:17:31.599Z,987.027828836
2022-09-15T08:18:31.603Z,986.9262374719999
2022-09-15T08:19:31.634Z,987.027828836
2022-09-15T08:20:31.576Z,986.9262374719999
2022-09-15T08:21:31.624Z,986.9262374719999
2022-09-15T08:22:31.626Z,987.027828836
2022-09-15T08:23:31.594Z,986.8246461079999
2022-09-15T08:24:31.594Z,986.9262374719999
2022-09-15T08:25:31.655Z,986.8246461079999
2022-09-15T08:26:31.624Z,986.9262374719999
2022-09-15T08:27:31.627Z,987.027828836
2022-09-15T08:28:31.582Z,987.027828836
2022-09-15T08:29:31.607Z,986.9262374719999
2022-09-15T08:30:31.588Z,987.1294201999999
2022-09-15T08:31:31.690Z,986.8246461079999
2022-09-15T08:32:31.555Z,987.027828836
2022-09-15T08:33:31.597Z,987.027828836
2022-09-15T08:34:31.595Z,986.8246461079999
2022-09-15T08:35:31.611Z,986.8246461079999
2022-09-15T08:36:31.620Z,987.027828836
2022-09-15T08:37:31.600Z,987.027828836
2022-09-15T08:38:31.611Z,987.027828836
2022-09-15T08:39:31.615Z,987.027828836
2022-09-15T08:40:31.758Z,987.2310115639999
2022-09-15T08:41:31.661Z,987.1294201999999
2022-09-15T08:42:31.625Z,987.1294201999999
2022-09-15T08:43:31.587Z,987.027828836
2022-09-15T08:44:31.613Z,987.2310115639999
2022-09-15T08:45:31.610Z,987.027828836
2022-09-15T08:46:31.669Z,986.9262374719999
2022-09-15T08:47:31.702Z,986.9262374719999
2022-09-15T08:48:31.564Z,987.2310115639999
2022-09-15T08:49:50.412Z,987.027828836
2022-09-15T08:50:31.672Z,987.027828836
2022-09-15T08:51:31.662Z,987.2310115639999
2022-09-15T08:52:31.619Z,986.9262374719999
2022-09-15T08:53:31.607Z,987.1294201999999
2022-09-15T08:54:31.632Z,986.8246461079999
2022-09-15T08:55:31.591Z,986.9262374719999
2022-09-15T08:56:31.600Z,986.9262374719999
2022-09-15T08:57:31.580Z,987.1294201999999
2022-09-15T08:58:31.608Z,986.8246461079999
2022-09-15T08:59:31.624Z,986.9262374719999
2022-09-15T09:00:31.586Z,987.027828836
2022-09-15T09:01:31.701Z,987.027828836
2022-09-15T09:02:31.727Z,986.9262374719999
2022-09-15T09:03:31.592Z,986.9262374719999
2022-09-15T09:04:31.555Z,986.9262374719999
2022-09-15T09:05:31.607Z,986.9262374719999
2022-09-15T09:06:31.613Z,986.8246461079999
2022-09-15T09:07:31.638Z,986.9262374719999
2022-09-15T09:08:31.575Z,986.8246461079999
2022-09-15T09:09:31.586Z,987.027828836
2022-09-15T09:10:31.593Z,986.8246461079999
2022-09-15T09:11:31.590Z,986.9262374719999
2022-09-15T09:12:31.679Z,986.8246461079999
2022-09-15T09:13:35.341Z,986.9262374719999
2022-09-15T09:14:31.602Z,986.62146338
2022-09-15T09:15:31.666Z,986.8246461079999
2022-09-15T09:16:31.651Z,986.8246461079999
2022-09-15T09:17:31.543Z,986.8246461079999
2022-09-15T09:18:31.760Z,986.8246461079999
2022-09-15T09:19:32.466Z,986.9262374719999
2022-09-15T09:20:31.614Z,986.9262374719999
2022-09-15T09:21:31.603Z,987.1294201999999
2022-09-15T09:22:31.837Z,986.9262374719999
2022-09-15T09:23:31.613Z,986.9262374719999
2022-09-15T09:24:31.575Z,986.8246461079999
2022-09-15T09:25:31.582Z,987.027828836
2022-09-15T09:26:31.577Z,986.9262374719999
2022-09-15T09:27:31.605Z,986.9262374719999
2022-09-15T09:28:31.578Z,986.9262374719999
2022-09-15T09:29:31.633Z,987.1294201999999
2022-09-15T09:30:31.591Z,986.8246461079999
2022-09-15T09:31:31.651Z,987.027828836
2022-09-15T09:32:31.558Z,987.1294201999999
2022-09-15T09:33:31.631Z,987.027828836
2022-09-15T09:34:31.576Z,986.7230547440001
2022-09-15T09:35:31.610Z,987.1294201999999
2022-09-15T09:36:31.578Z,986.7230547440001
2022-09-15T09:37:31.617Z,986.9262374719999
2022-09-15T09:38:31.573Z,986.9262374719999
2022-09-15T09:39:31.586Z,986.62146338
2022-09-15T09:40:31.894Z,987.027828836
2022-09-15T09:41:31.596Z,986.8246461079999
2022-09-15T09:42:31.573Z,986.9262374719999
2022-09-15T09:43:31.595Z,986.9262374719999
2022-09-15T09:44:31.865Z,986.9262374719999